createdAt,value
2018-06-30T00:01:26.305Z,16.20
2018-06-30T00:03:56.200Z,16.10
2018-06-30T00:06:26.119Z,16.10
2018-06-30T00:08:55.724Z,16.10
2018-06-30T00:11:24.635Z,16.00
2018-06-30T00:13:53.748Z,16.20
2018-06-30T00:16:22.464Z,16.20
2018-06-30T00:18:51.444Z,16.00
2018-06-30T00:21:20.193Z,16.00
2018-06-30T00:23:48.867Z,16.00
2018-06-30T00:26:18.161Z,16.00
2018-06-30T00:28:46.848Z,15.90
2018-06-30T00:31:16.141Z,15.80
2018-06-30T00:33:45.249Z,15.70
2018-06-30T00:36:13.955Z,15.80
2018-06-30T00:38:42.968Z,15.70
2018-06-30T00:41:11.615Z,15.60
2018-06-30T00:43:40.336Z,15.50
2018-06-30T00:46:09.137Z,15.50
2018-06-30T00:48:38.381Z,15.40
2018-06-30T00:51:07.367Z,15.30
2018-06-30T00:53:36.001Z,15.20
2018-06-30T00:56:04.915Z,15.20
2018-06-30T00:58:33.782Z,15.10
2018-06-30T01:01:02.444Z,15.20
2018-06-30T01:03:31.460Z,15.20
2018-06-30T01:06:00.129Z,15.00
2018-06-30T01:08:28.797Z,15.10
2018-06-30T01:10:57.676Z,15.00
2018-06-30T01:13:26.929Z,15.10
2018-06-30T01:15:55.963Z,15.00
2018-06-30T01:18:24.608Z,15.00
2018-06-30T01:20:53.605Z,14.80
2018-06-30T01:23:22.312Z,14.80
2018-06-30T01:25:51.292Z,14.80
2018-06-30T01:28:19.946Z,14.70
2018-06-30T01:30:48.592Z,14.70
2018-06-30T01:33:17.329Z,14.70
2018-06-30T01:35:46.372Z,14.70
2018-06-30T01:38:15.108Z,14.70
2018-06-30T01:40:44.275Z,14.60
2018-06-30T01:43:13.491Z,14.60
2018-06-30T01:45:42.192Z,14.60
2018-06-30T01:48:10.866Z,14.50
2018-06-30T01:50:39.913Z,14.60
2018-06-30T01:53:08.693Z,14.50
2018-06-30T01:55:37.839Z,14.50
2018-06-30T01:58:07.634Z,14.40
2018-06-30T02:00:36.393Z,14.30
2018-06-30T02:03:05.357Z,14.30
2018-06-30T02:05:34.023Z,14.30
2018-06-30T02:08:02.655Z,14.20
2018-06-30T02:10:31.377Z,14.30
2018-06-30T02:13:00.102Z,14.20
2018-06-30T02:15:28.977Z,14.20
2018-06-30T02:17:57.643Z,14.20
2018-06-30T02:20:26.225Z,14.20
2018-06-30T02:22:55.173Z,14.10
2018-06-30T02:25:23.898Z,14.20
2018-06-30T02:27:52.539Z,14.10
2018-06-30T02:30:21.426Z,14.00
2018-06-30T02:32:50.391Z,14.10
2018-06-30T02:35:19.058Z,14.00
2018-06-30T02:37:48.012Z,14.00
2018-06-30T02:40:16.717Z,14.10
2018-06-30T02:42:45.976Z,13.90
2018-06-30T02:45:14.720Z,14.00
2018-06-30T02:47:43.464Z,13.90
2018-06-30T02:50:12.497Z,13.90
2018-06-30T02:52:41.173Z,13.90
2018-06-30T02:55:09.762Z,13.90
2018-06-30T02:57:38.320Z,13.80
2018-06-30T03:00:06.877Z,13.90
2018-06-30T03:02:35.651Z,13.80
2018-06-30T03:05:04.726Z,13.80
2018-06-30T03:07:33.366Z,13.80
2018-06-30T03:10:02.011Z,13.90
2018-06-30T03:12:30.740Z,13.80
2018-06-30T03:14:59.392Z,13.70
2018-06-30T03:17:28.085Z,13.70
2018-06-30T03:19:56.821Z,13.70
2018-06-30T03:22:25.525Z,13.70
2018-06-30T03:24:54.035Z,13.60
2018-06-30T03:27:22.635Z,13.50
2018-06-30T03:29:51.255Z,13.60
2018-06-30T03:32:20.205Z,13.50
2018-06-30T03:34:49.196Z,13.50
2018-06-30T03:37:17.881Z,13.50
2018-06-30T03:39:46.828Z,13.50
2018-06-30T03:42:15.825Z,13.50
2018-06-30T03:44:44.451Z,13.50
2018-06-30T03:47:13.307Z,13.40
2018-06-30T03:49:42.008Z,13.50
2018-06-30T03:52:10.725Z,13.50
2018-06-30T03:54:39.469Z,13.60
2018-06-30T03:57:08.169Z,13.50
2018-06-30T03:59:36.808Z,13.50
2018-06-30T04:02:05.495Z,13.50
2018-06-30T04:04:34.028Z,13.50
2018-06-30T04:07:02.764Z,13.60
2018-06-30T04:09:31.441Z,13.70
2018-06-30T04:12:00.544Z,13.60
2018-06-30T04:14:29.909Z,13.70
2018-06-30T04:16:58.612Z,13.80
2018-06-30T04:19:27.910Z,13.70
2018-06-30T04:21:56.673Z,13.70
2018-06-30T04:24:25.427Z,13.70
2018-06-30T04:26:54.036Z,13.80
2018-06-30T04:29:22.668Z,13.80
2018-06-30T04:31:51.317Z,13.80
2018-06-30T04:34:20.269Z,14.00
2018-06-30T04:36:48.920Z,13.90
2018-06-30T04:39:17.582Z,14.00
2018-06-30T04:41:46.320Z,14.00
2018-06-30T04:44:15.940Z,14.10
2018-06-30T04:46:45.939Z,14.00
2018-06-30T04:49:14.594Z,14.00
2018-06-30T04:51:43.464Z,14.00
2018-06-30T04:54:13.244Z,14.10
2018-06-30T04:56:42.457Z,14.10
2018-06-30T04:59:11.807Z,14.10
2018-06-30T05:01:40.666Z,14.10
2018-06-30T05:04:09.564Z,14.30
2018-06-30T05:06:38.224Z,14.30
2018-06-30T05:09:08.324Z,14.40
2018-06-30T05:11:37.392Z,14.40
2018-06-30T05:14:06.442Z,14.60
2018-06-30T05:16:35.229Z,14.80
2018-06-30T05:19:04.006Z,14.90
2018-06-30T05:21:33.245Z,15.10
2018-06-30T05:24:02.406Z,15.10
2018-06-30T05:26:31.327Z,15.20
2018-06-30T05:29:00.094Z,15.40
2018-06-30T05:31:29.161Z,15.40
2018-06-30T05:33:58.177Z,15.60
2018-06-30T05:36:27.013Z,15.70
2018-06-30T05:38:55.824Z,15.70
2018-06-30T05:41:24.469Z,15.70
2018-06-30T05:43:53.617Z,15.90
2018-06-30T05:46:22.617Z,16.10
2018-06-30T05:48:51.400Z,16.20
2018-06-30T05:51:20.291Z,16.20
2018-06-30T05:53:49.194Z,16.30
2018-06-30T05:56:18.213Z,16.50
2018-06-30T05:58:47.137Z,16.50
2018-06-30T06:01:16.840Z,16.70
2018-06-30T06:03:45.994Z,16.90
2018-06-30T06:06:14.720Z,17.10
2018-06-30T06:08:43.560Z,17.00
2018-06-30T06:11:12.944Z,17.10
2018-06-30T06:13:41.765Z,17.20
2018-06-30T06:16:10.679Z,17.30
2018-06-30T06:18:39.381Z,17.40
2018-06-30T06:21:08.134Z,17.60
2018-06-30T06:23:36.877Z,17.70
2018-06-30T06:26:06.069Z,17.80
2018-06-30T06:28:34.962Z,17.90
2018-06-30T06:31:03.845Z,18.20
2018-06-30T06:33:32.860Z,18.30
2018-06-30T06:36:01.806Z,18.40
2018-06-30T06:38:30.690Z,18.60
2018-06-30T06:40:59.241Z,18.60
2018-06-30T06:43:28.175Z,18.60
2018-06-30T06:45:57.200Z,18.80
2018-06-30T06:48:25.962Z,18.90
2018-06-30T06:50:54.693Z,19.00
2018-06-30T06:53:23.451Z,19.10
2018-06-30T06:55:52.156Z,19.10
2018-06-30T07:00:50.460Z,19.40
2018-06-30T07:03:19.153Z,19.50
2018-06-30T07:05:48.201Z,19.60
2018-06-30T07:08:16.901Z,19.70
2018-06-30T07:10:45.759Z,20.00
2018-06-30T07:13:14.394Z,20.00
2018-06-30T07:15:43.369Z,20.00
2018-06-30T07:18:12.072Z,20.10
2018-06-30T07:20:41.056Z,20.40
2018-06-30T07:23:10.085Z,20.50
2018-06-30T07:25:38.766Z,20.40
2018-06-30T07:28:08.301Z,20.50
2018-06-30T07:30:37.179Z,20.50
2018-06-30T07:50:28.223Z,21.00
2018-06-30T07:52:57.357Z,21.40
2018-06-30T07:57:56.189Z,21.60
2018-06-30T08:00:26.209Z,21.60
2018-06-30T08:02:56.104Z,21.70
2018-06-30T08:05:24.903Z,21.70
2018-06-30T08:07:54.062Z,22.00
2018-06-30T08:10:22.683Z,22.10
2018-06-30T08:12:51.441Z,22.00
2018-06-30T08:15:20.216Z,22.00
2018-06-30T08:17:50.104Z,22.00
2018-06-30T08:20:18.849Z,22.20
2018-06-30T08:22:47.560Z,22.30
2018-06-30T08:25:16.204Z,22.40
2018-06-30T08:27:45.520Z,22.60
2018-06-30T08:30:15.445Z,22.70
2018-06-30T08:32:44.120Z,22.80
2018-06-30T08:35:13.185Z,22.90
2018-06-30T08:37:41.898Z,22.80
2018-06-30T08:40:10.848Z,22.50
2018-06-30T08:45:54.091Z,22.80
2018-06-30T13:45:42.542Z,33.50
2018-06-30T15:27:17.958Z,34.30
2018-06-30T15:29:47.661Z,34.00
2018-06-30T15:32:17.262Z,34.20
2018-06-30T15:37:15.864Z,33.80
2018-06-30T15:52:07.447Z,33.80
2018-06-30T19:18:00.741Z,34.50
2018-06-30T19:20:30.252Z,22.30
2018-06-30T19:23:00.186Z,21.90
2018-06-30T19:25:29.003Z,21.80
2018-06-30T19:27:57.645Z,21.90
2018-06-30T19:30:27.498Z,22.00
2018-06-30T19:32:57.015Z,21.70
2018-06-30T19:35:27.655Z,21.50
2018-06-30T19:37:56.748Z,21.40
2018-06-30T19:40:29.563Z,21.40
2018-06-30T19:42:58.693Z,21.30
2018-06-30T19:45:27.440Z,21.10
2018-06-30T19:47:57.435Z,21.10
2018-06-30T19:52:55.366Z,20.90
2018-06-30T19:55:24.364Z,20.90
2018-06-30T19:57:54.859Z,20.70
2018-06-30T20:00:24.069Z,20.50
2018-06-30T20:02:54.389Z,20.70
2018-06-30T20:05:23.438Z,20.40
2018-06-30T20:07:54.057Z,20.50
2018-06-30T20:10:24.410Z,20.50
2018-06-30T20:12:53.551Z,20.50
2018-06-30T20:15:22.391Z,20.20
2018-06-30T20:17:51.266Z,20.10
2018-06-30T20:20:20.209Z,20.20
2018-06-30T20:22:48.894Z,20.20
2018-06-30T20:25:19.335Z,20.10
2018-06-30T20:27:48.676Z,19.80
2018-06-30T20:30:17.818Z,19.70
2018-06-30T20:32:47.001Z,19.50
2018-06-30T20:35:15.844Z,19.80
2018-06-30T20:37:44.764Z,19.70
2018-06-30T20:40:13.542Z,19.70
2018-06-30T20:42:42.895Z,19.70
2018-06-30T20:45:11.770Z,19.50
2018-06-30T20:47:41.789Z,19.40
2018-06-30T20:50:10.697Z,19.60
2018-06-30T20:52:39.723Z,19.60
2018-06-30T20:55:08.390Z,19.50
2018-06-30T20:57:37.712Z,19.40
2018-06-30T21:00:06.320Z,19.50
2018-06-30T21:02:35.642Z,19.20
2018-06-30T21:05:04.748Z,19.20
2018-06-30T21:07:33.417Z,19.20
2018-06-30T21:10:02.294Z,19.30
2018-06-30T21:12:31.252Z,19.10
2018-06-30T21:15:00.491Z,19.30
2018-06-30T21:17:29.321Z,19.10
2018-06-30T21:19:58.293Z,18.90
2018-06-30T21:22:27.212Z,18.70
2018-06-30T21:24:56.082Z,18.90
2018-06-30T21:27:24.807Z,18.80
2018-06-30T21:29:53.521Z,18.90
2018-06-30T21:32:22.764Z,18.50
2018-06-30T21:34:51.441Z,18.40
2018-06-30T21:37:20.620Z,18.30
2018-06-30T21:39:49.397Z,18.40
2018-06-30T21:42:18.660Z,18.40
2018-06-30T21:44:47.405Z,18.50
2018-06-30T21:47:16.264Z,18.50
2018-06-30T21:49:46.351Z,18.50
2018-06-30T21:52:15.108Z,18.20
2018-06-30T21:54:44.042Z,18.30
2018-06-30T21:57:13.161Z,18.20
2018-06-30T21:59:42.231Z,18.20
2018-06-30T22:02:11.461Z,18.00
2018-06-30T22:17:02.242Z,18.20
2018-06-30T22:19:31.014Z,17.60
2018-06-30T22:22:00.034Z,17.60
2018-06-30T22:24:28.993Z,17.60
2018-06-30T22:26:57.705Z,17.60
2018-06-30T22:29:26.609Z,17.40
2018-06-30T22:44:22.761Z,17.10
2018-06-30T22:46:53.365Z,16.90
2018-06-30T22:49:21.972Z,16.60
2018-06-30T22:51:50.824Z,16.60
2018-06-30T22:54:20.112Z,16.50
2018-06-30T22:56:48.802Z,16.40
2018-06-30T22:59:17.482Z,16.30
2018-06-30T23:01:46.307Z,16.30
2018-06-30T23:04:15.109Z,16.30
2018-06-30T23:06:44.228Z,16.30
2018-06-30T23:31:30.941Z,15.70
2018-06-30T23:33:59.647Z,15.60
2018-06-30T23:36:28.461Z,15.50
2018-06-30T23:38:57.235Z,15.40
2018-06-30T23:41:25.965Z,15.30
2018-06-30T23:43:55.112Z,15.30
2018-06-30T23:46:24.013Z,15.30
2018-06-30T23:48:53.084Z,15.30
2018-06-30T23:51:21.749Z,15.40
2018-06-30T23:53:50.865Z,15.20
2018-06-30T23:58:48.395Z,15.20
